Time;durP1;ratioP1;P1;durP2;ratioP2;P2;SDS_P1;SDS_P2;PMS_P1;PMS_P2;Temp;Humidity;BMP_temperature;BMP_pressure;BME280_temperature;BME280_humidity;BME280_pressure;Samples;Min_cycle;Max_cycle;Signal;HPM_P1;HPM_P2
2023/12/07 00:00:58;;;;;;;;;;;16.20;53.40;;;;;;4983285;28;43031;-84
2023/12/07 00:03:24;;;;;;;;;;;16.20;53.50;;;;;;4982622;28;43590;-86
2023/12/07 00:05:49;;;;;;;;;;;16.20;53.70;;;;;;4967095;28;43051;-85
2023/12/07 00:08:15;;;;;;;;;;;16.20;53.70;;;;;;4983016;28;43131;-85
2023/12/07 00:10:41;;;;;;;;;;;16.20;53.70;;;;;;4983118;28;43515;-85
2023/12/07 00:13:06;;;;;;;;;;;16.20;53.80;;;;;;4982219;28;43903;-85
2023/12/07 00:15:32;;;;;;;;;;;16.20;53.90;;;;;;4992170;28;43043;-85
2023/12/07 00:17:57;;;;;;;;;;;16.30;53.90;;;;;;5049225;28;43507;-85
2023/12/07 00:20:23;;;;;;;;;;;16.30;53.90;;;;;;5045052;28;42978;-85
2023/12/07 00:22:48;;;;;;;;;;;16.20;53.90;;;;;;5047956;28;42986;-85
2023/12/07 00:25:14;;;;;;;;;;;16.20;54.00;;;;;;5051417;28;43122;-85
2023/12/07 00:27:40;;;;;;;;;;;16.20;54.00;;;;;;5046345;28;44334;-84
2023/12/07 00:30:05;;;;;;;;;;;16.10;53.90;;;;;;5049562;28;43031;-85
2023/12/07 00:32:31;;;;;;;;;;;16.20;54.00;;;;;;5062318;28;43461;-85
2023/12/07 00:34:56;;;;;;;;;;;16.10;54.00;;;;;;5069482;28;42943;-85
2023/12/07 00:37:22;;;;;;;;;;;16.20;54.00;;;;;;5064607;28;43204;-85
2023/12/07 00:39:48;;;;;;;;;;;16.20;54.00;;;;;;5065690;28;42938;-85
2023/12/07 00:42:13;;;;;;;;;;;16.20;54.00;;;;;;5055551;28;43911;-85
2023/12/07 00:44:39;;;;;;;;;;;16.20;54.00;;;;;;5064191;28;42992;-85
2023/12/07 00:47:05;;;;;;;;;;;16.20;54.00;;;;;;5045739;28;43488;-86
2023/12/07 00:49:30;;;;;;;;;;;16.10;53.90;;;;;;5044212;28;42938;-86
2023/12/07 00:51:56;;;;;;;;;;;16.30;54.00;;;;;;5044482;28;43671;-84
2023/12/07 00:54:21;;;;;;;;;;;16.20;54.00;;;;;;5044771;28;43018;-87
2023/12/07 00:56:47;;;;;;;;;;;16.20;53.90;;;;;;5042601;28;44593;-85
2023/12/07 00:59:12;;;;;;;;;;;16.20;53.90;;;;;;5061823;28;43322;-85
2023/12/07 01:01:38;;;;;;;;;;;16.10;53.90;;;;;;5048622;28;43518;-86
2023/12/07 01:04:05;;;;;;;;;;;16.20;54.00;;;;;;5047306;28;43153;-85
2023/12/07 01:06:31;;;;;;;;;;;16.10;53.90;;;;;;5053600;28;45670;-85
2023/12/07 01:08:56;;;;;;;;;;;16.20;54.00;;;;;;5044582;28;43011;-86
2023/12/07 01:11:22;;;;;;;;;;;16.20;53.90;;;;;;5046420;28;44106;-85
2023/12/07 01:13:47;;;;;;;;;;;16.20;53.90;;;;;;5046817;28;42941;-85
2023/12/07 01:16:13;;;;;;;;;;;16.10;53.90;;;;;;5064473;28;44105;-85
2023/12/07 01:18:38;;;;;;;;;;;16.30;53.90;;;;;;5057222;28;42982;-84
2023/12/07 01:21:04;;;;;;;;;;;16.20;54.70;;;;;;5052983;28;42923;-85
2023/12/07 01:23:29;;;;;;;;;;;16.20;53.90;;;;;;5064899;28;42927;-85
2023/12/07 01:25:55;;;;;;;;;;;16.10;53.80;;;;;;5064788;28;43587;-87
2023/12/07 01:28:25;;;;;;;;;;;16.20;53.90;;;;;;5066122;28;43022;-85
2023/12/07 01:30:51;;;;;;;;;;;16.20;53.90;;;;;;5066030;28;45481;-86
2023/12/07 01:33:16;;;;;;;;;;;16.20;53.80;;;;;;5054440;28;42943;-85
2023/12/07 01:35:42;;;;;;;;;;;16.20;53.80;;;;;;5048674;28;43081;-85
2023/12/07 01:38:08;;;;;;;;;;;16.20;53.90;;;;;;5047840;28;43033;-86
2023/12/07 01:40:34;;;;;;;;;;;16.20;53.90;;;;;;5046013;28;44471;-86
2023/12/07 01:43:00;;;;;;;;;;;16.20;53.90;;;;;;5046840;28;42955;-85
2023/12/07 01:45:25;;;;;;;;;;;16.10;53.80;;;;;;5062648;28;43560;-86
2023/12/07 01:47:52;;;;;;;;;;;16.10;53.80;;;;;;5066022;28;43186;-86
2023/12/07 01:50:23;;;;;;;;;;;16.20;53.90;;;;;;5066688;28;45920;-85
2023/12/07 01:52:50;;;;;;;;;;;16.20;54.40;;;;;;5061938;28;43078;-85
2023/12/07 01:55:16;;;;;;;;;;;16.20;53.80;;;;;;5065776;28;44347;-86
2023/12/07 01:57:43;;;;;;;;;;;16.20;54.50;;;;;;5063999;28;43018;-85
2023/12/07 02:00:09;;;;;;;;;;;16.20;53.80;;;;;;5056159;28;42814;-85
2023/12/07 02:02:35;;;;;;;;;;;16.20;53.80;;;;;;5065250;28;42939;-85
2023/12/07 02:05:01;;;;;;;;;;;16.10;53.80;;;;;;5062202;28;43596;-86
2023/12/07 02:07:27;;;;;;;;;;;16.30;53.80;;;;;;5059123;28;42871;-87
2023/12/07 02:09:52;;;;;;;;;;;16.10;53.70;;;;;;5046552;28;42968;-85
2023/12/07 02:12:19;;;;;;;;;;;16.20;53.70;;;;;;5045512;28;43124;-85
2023/12/07 02:14:45;;;;;;;;;;;16.20;53.70;;;;;;5065085;28;43400;-85
2023/12/07 02:17:13;;;;;;;;;;;16.30;53.80;;;;;;5055419;28;43172;-85
2023/12/07 02:19:42;;;;;;;;;;;16.30;53.80;;;;;;5045640;28;44655;-85
2023/12/07 02:22:12;;;;;;;;;;;16.20;53.70;;;;;;5048309;28;43057;-85
2023/12/07 02:24:37;;;;;;;;;;;16.20;53.60;;;;;;5063020;28;42970;-85
2023/12/07 02:27:03;;;;;;;;;;;16.20;53.60;;;;;;5047448;28;42978;-87
2023/12/07 02:29:28;;;;;;;;;;;16.20;53.70;;;;;;5048483;28;43666;-86
2023/12/07 02:31:54;;;;;;;;;;;16.30;53.80;;;;;;5059041;28;43586;-87
2023/12/07 02:34:19;;;;;;;;;;;16.30;53.80;;;;;;5060079;28;43503;-87
2023/12/07 02:36:46;;;;;;;;;;;16.20;53.60;;;;;;5066131;28;42802;-87
2023/12/07 02:39:12;;;;;;;;;;;16.20;53.60;;;;;;5065242;28;42934;-88
2023/12/07 02:41:39;;;;;;;;;;;16.30;53.70;;;;;;5065184;28;42887;-85
2023/12/07 02:44:05;;;;;;;;;;;16.20;53.60;;;;;;5066911;28;43893;-85
2023/12/07 02:46:30;;;;;;;;;;;16.30;53.70;;;;;;5064609;28;43108;-85
2023/12/07 02:48:57;;;;;;;;;;;16.30;53.80;;;;;;5066500;28;43185;-85
2023/12/07 02:51:22;;;;;;;;;;;16.20;53.60;;;;;;5055790;28;42996;-86
2023/12/07 02:53:48;;;;;;;;;;;16.20;53.60;;;;;;5048118;28;43350;-85
2023/12/07 02:56:13;;;;;;;;;;;16.20;53.70;;;;;;5056056;28;42938;-86
2023/12/07 02:58:39;;;;;;;;;;;16.30;53.80;;;;;;5051378;28;42933;-86
2023/12/07 03:01:04;;;;;;;;;;;16.30;53.80;;;;;;5055262;28;43058;-85
2023/12/07 03:03:30;;;;;;;;;;;16.30;53.90;;;;;;5052867;28;42930;-87
2023/12/07 03:05:55;;;;;;;;;;;16.20;53.90;;;;;;5056177;28;42856;-85
2023/12/07 03:08:21;;;;;;;;;;;16.30;53.90;;;;;;5046480;28;43507;-85
2023/12/07 03:10:47;;;;;;;;;;;16.30;53.90;;;;;;5046817;28;43002;-86
2023/12/07 03:13:12;;;;;;;;;;;16.30;53.90;;;;;;5051656;28;44236;-85
2023/12/07 03:15:38;;;;;;;;;;;16.30;54.00;;;;;;5050650;28;42974;-86
2023/12/07 03:18:03;;;;;;;;;;;16.10;53.80;;;;;;5046081;28;42993;-85
2023/12/07 03:20:29;;;;;;;;;;;16.30;54.00;;;;;;5063664;28;42938;-86
2023/12/07 03:22:54;;;;;;;;;;;16.20;53.90;;;;;;5060514;28;43271;-85
2023/12/07 03:25:20;;;;;;;;;;;16.30;53.90;;;;;;5066235;28;42952;-85
2023/12/07 03:27:45;;;;;;;;;;;16.20;53.90;;;;;;5066226;28;43173;-86
2023/12/07 03:30:11;;;;;;;;;;;16.30;54.00;;;;;;5054677;28;43016;-87
2023/12/07 03:32:37;;;;;;;;;;;16.20;53.90;;;;;;5045085;28;43873;-85
2023/12/07 03:35:03;;;;;;;;;;;16.20;54.00;;;;;;5045010;28;43112;-85
2023/12/07 03:37:28;;;;;;;;;;;16.30;54.10;;;;;;5046620;28;42993;-85
2023/12/07 03:39:54;;;;;;;;;;;16.20;54.00;;;;;;5047223;28;43073;-85
2023/12/07 03:42:19;;;;;;;;;;;16.20;54.00;;;;;;5045590;28;42933;-85
2023/12/07 03:44:45;;;;;;;;;;;16.30;53.90;;;;;;5045438;28;42928;-85
2023/12/07 03:47:10;;;;;;;;;;;16.20;53.90;;;;;;5045470;28;43006;-85
2023/12/07 03:49:38;;;;;;;;;;;16.30;54.00;;;;;;5065676;28;43063;-85
2023/12/07 03:52:04;;;;;;;;;;;16.30;53.90;;;;;;5046532;28;43764;-85
2023/12/07 03:54:29;;;;;;;;;;;16.30;54.70;;;;;;5045272;28;42953;-85
2023/12/07 03:56:55;;;;;;;;;;;16.10;54.00;;;;;;5059323;28;42965;-85
2023/12/07 03:59:20;;;;;;;;;;;16.20;53.90;;;;;;5051636;28;43034;-85
2023/12/07 04:01:46;;;;;;;;;;;16.20;53.90;;;;;;5046625;28;43245;-85
2023/12/07 04:04:11;;;;;;;;;;;16.20;53.90;;;;;;5065155;28;43068;-84
2023/12/07 04:06:37;;;;;;;;;;;16.20;54.00;;;;;;5065773;28;43460;-85
2023/12/07 04:09:04;;;;;;;;;;;16.20;54.10;;;;;;5066266;28;42904;-83
2023/12/07 04:11:29;;;;;;;;;;;16.20;54.00;;;;;;5063012;28;42895;-85
2023/12/07 04:13:55;;;;;;;;;;;16.20;54.00;;;;;;5055993;28;43139;-85
2023/12/07 04:16:20;;;;;;;;;;;16.20;53.90;;;;;;5045745;28;42854;-86
2023/12/07 04:18:46;;;;;;;;;;;16.20;53.90;;;;;;5055380;28;43053;-85
2023/12/07 04:21:11;;;;;;;;;;;16.30;54.00;;;;;;5065233;28;43600;-84
2023/12/07 04:23:37;;;;;;;;;;;16.30;53.90;;;;;;5063244;28;42851;-85
2023/12/07 04:26:03;;;;;;;;;;;16.50;54.80;;;;;;5063706;28;43722;-85
2023/12/07 04:28:28;;;;;;;;;;;16.30;53.90;;;;;;5048467;28;42934;-86
2023/12/07 04:30:54;;;;;;;;;;;16.30;54.00;;;;;;5049328;28;42923;-85
2023/12/07 04:33:19;;;;;;;;;;;16.10;54.70;;;;;;5066068;28;42918;-84
2023/12/07 04:35:48;;;;;;;;;;;16.10;53.70;;;;;;5063363;28;43351;-85
2023/12/07 04:38:13;;;;;;;;;;;16.30;53.70;;;;;;5060047;28;42911;-84
2023/12/07 04:40:39;;;;;;;;;;;16.20;54.60;;;;;;5059669;28;43721;-84
2023/12/07 04:43:04;;;;;;;;;;;16.10;53.80;;;;;;5059039;28;44411;-84
2023/12/07 04:45:30;;;;;;;;;;;16.20;53.70;;;;;;5060293;28;43554;-84
2023/12/07 04:47:57;;;;;;;;;;;16.10;53.60;;;;;;5062001;28;42955;-85
2023/12/07 04:50:22;;;;;;;;;;;16.30;53.60;;;;;;5052297;28;44527;-85
2023/12/07 04:52:48;;;;;;;;;;;16.20;53.60;;;;;;5047448;28;42951;-85
2023/12/07 04:55:15;;;;;;;;;;;16.30;53.60;;;;;;5045588;28;43384;-84
2023/12/07 04:57:40;;;;;;;;;;;16.20;53.50;;;;;;5046465;28;43006;-85
2023/12/07 05:00:06;;;;;;;;;;;16.30;53.60;;;;;;5042607;28;43529;-85
2023/12/07 05:02:32;;;;;;;;;;;16.20;53.50;;;;;;5047976;28;43138;-84
2023/12/07 05:04:57;;;;;;;;;;;16.10;53.50;;;;;;5058392;28;43071;-85
2023/12/07 05:07:23;;;;;;;;;;;16.30;53.60;;;;;;5064454;28;43029;-85
2023/12/07 05:09:50;;;;;;;;;;;16.10;53.50;;;;;;5044949;28;44244;-86
2023/12/07 05:12:16;;;;;;;;;;;16.20;53.50;;;;;;5054127;28;43016;-85
2023/12/07 05:14:41;;;;;;;;;;;16.20;53.50;;;;;;5059375;28;42867;-85
2023/12/07 05:17:07;;;;;;;;;;;16.20;53.50;;;;;;5052663;28;43046;-85
2023/12/07 05:19:40;;;;;;;;;;;16.20;53.10;;;;;;5656996;22;43688;-86
2023/12/07 05:30:18;;;;;;;;;;;16.40;53.00;;;;;;5280274;22;43468;-86
2023/12/07 05:32:44;;;;;;;;;;;16.20;53.10;;;;;;5016868;28;42901;-87
2023/12/07 05:35:09;;;;;;;;;;;16.30;53.30;;;;;;5063855;28;43723;-86
2023/12/07 05:37:35;;;;;;;;;;;16.20;53.30;;;;;;5064614;28;42892;-85
2023/12/07 05:40:00;;;;;;;;;;;16.10;53.30;;;;;;5064605;28;42771;-85
2023/12/07 05:42:26;;;;;;;;;;;16.30;54.20;;;;;;5030119;28;42896;-87
2023/12/07 05:44:51;;;;;;;;;;;16.20;53.50;;;;;;5034260;28;42988;-84
2023/12/07 05:47:17;;;;;;;;;;;16.10;53.40;;;;;;5042233;28;42959;-85
2023/12/07 05:49:42;;;;;;;;;;;16.20;53.70;;;;;;5043622;28;43062;-85
2023/12/07 05:52:08;;;;;;;;;;;16.20;53.70;;;;;;5041730;28;42948;-85
2023/12/07 05:54:34;;;;;;;;;;;16.20;53.70;;;;;;5043829;28;42880;-84
2023/12/07 05:56:59;;;;;;;;;;;16.20;54.50;;;;;;5037823;28;43099;-86
2023/12/07 05:59:25;;;;;;;;;;;16.20;53.80;;;;;;5041359;28;43469;-84
2023/12/07 06:01:51;;;;;;;;;;;16.30;53.90;;;;;;5044016;28;42999;-84
2023/12/07 06:04:17;;;;;;;;;;;16.20;54.10;;;;;;5042346;28;43030;-85
2023/12/07 06:07:14;;;;;;;;;;;16.20;53.90;;;;;;5023494;28;43852;-84
2023/12/07 06:27:33;;;;;;;;;;;15.90;50.60;;;;;;4943717;28;43061;-84
2023/12/07 06:30:11;;;;;;;;;;;16.00;50.60;;;;;;4945117;28;43186;-84
2023/12/07 06:33:05;;;;;;;;;;;16.00;50.40;;;;;;4945364;28;44505;-88
2023/12/07 06:35:39;;;;;;;;;;;16.00;50.50;;;;;;4938305;28;43120;-81
2023/12/07 06:38:05;;;;;;;;;;;16.00;50.40;;;;;;4941547;28;43478;-82
2023/12/07 06:40:31;;;;;;;;;;;16.00;47.60;;;;;;4945828;28;43057;-82
2023/12/07 06:42:57;;;;;;;;;;;15.80;42.80;;;;;;4945462;28;43404;-83
2023/12/07 06:50:33;;;;;;;;;;;15.30;39.10;;;;;;5443534;22;43161;-84
2023/12/07 06:52:59;;;;;;;;;;;15.10;39.30;;;;;;5046067;28;43004;-83
2023/12/07 06:55:25;;;;;;;;;;;14.90;39.50;;;;;;5045222;28;42972;-83
2023/12/07 06:57:50;;;;;;;;;;;14.80;39.50;;;;;;5046676;28;43534;-83
2023/12/07 07:00:18;;;;;;;;;;;14.70;39.40;;;;;;5036085;28;42943;-84
2023/12/07 07:02:43;;;;;;;;;;;14.50;39.60;;;;;;5046552;28;43045;-83
2023/12/07 07:05:11;;;;;;;;;;;14.40;39.70;;;;;;5046450;28;43161;-84
2023/12/07 07:07:37;;;;;;;;;;;14.30;39.80;;;;;;5036473;28;44442;-84
2023/12/07 07:10:02;;;;;;;;;;;14.30;39.80;;;;;;5035697;28;42952;-84
2023/12/07 07:12:29;;;;;;;;;;;14.20;40.00;;;;;;5045439;28;43497;-84
2023/12/07 07:14:54;;;;;;;;;;;14.10;39.90;;;;;;5044249;28;42925;-83
2023/12/07 07:17:20;;;;;;;;;;;14.10;40.00;;;;;;5046255;28;43541;-83
2023/12/07 07:19:48;;;;;;;;;;;13.90;40.00;;;;;;5046967;28;42966;-85
2023/12/07 07:22:14;;;;;;;;;;;14.00;40.20;;;;;;5045433;28;43744;-83
2023/12/07 07:24:39;;;;;;;;;;;14.10;40.40;;;;;;5042638;28;43008;-84
2023/12/07 07:27:05;;;;;;;;;;;14.20;40.50;;;;;;5052393;28;43676;-84
2023/12/07 07:29:32;;;;;;;;;;;13.80;40.60;;;;;;5044426;28;42980;-86
2023/12/07 07:31:58;;;;;;;;;;;;;;;;;;5056785;28;42909;-87
2023/12/07 07:34:26;;;;;;;;;;;13.80;40.80;;;;;;5047036;28;42962;-83
2023/12/07 07:36:51;;;;;;;;;;;13.70;40.70;;;;;;5045353;28;43541;-83
2023/12/07 07:39:17;;;;;;;;;;;13.70;41.00;;;;;;5045001;28;42887;-84
2023/12/07 07:41:42;;;;;;;;;;;13.80;41.20;;;;;;5045605;28;43293;-83
2023/12/07 07:44:08;;;;;;;;;;;13.80;41.20;;;;;;5045161;28;42939;-85
2023/12/07 07:46:33;;;;;;;;;;;13.90;41.30;;;;;;5042311;28;42944;-83
2023/12/07 07:48:59;;;;;;;;;;;13.70;41.50;;;;;;5044855;28;43354;-84
2023/12/07 07:51:24;;;;;;;;;;;13.60;41.50;;;;;;5043604;28;43067;-82
2023/12/07 07:53:50;;;;;;;;;;;13.90;41.60;;;;;;5046333;28;43114;-83
2023/12/07 07:59:18;;;;;;;;;;;13.70;41.10;;;;;;5053945;28;42932;-83
2023/12/07 08:02:21;;;;;;;;;;;13.80;41.70;;;;;;5054885;28;43685;-82
2023/12/07 08:04:47;;;;;;;;;;;13.90;41.90;;;;;;5053428;28;42998;-83
2023/12/07 08:07:12;;;;;;;;;;;13.60;41.90;;;;;;5054761;28;43539;-83
2023/12/07 08:09:38;;;;;;;;;;;13.70;42.80;;;;;;5038360;28;42900;-83
2023/12/07 08:12:04;;;;;;;;;;;13.70;42.10;;;;;;5054632;28;43072;-83
2023/12/07 08:14:30;;;;;;;;;;;13.80;42.60;;;;;;5049216;28;43008;-82
2023/12/07 08:16:55;;;;;;;;;;;13.80;42.30;;;;;;5045043;28;42962;-84
2023/12/07 08:19:21;;;;;;;;;;;13.70;42.90;;;;;;5038239;28;42983;-84
2023/12/07 08:21:47;;;;;;;;;;;13.70;42.30;;;;;;5054858;28;43432;-84
2023/12/07 08:24:12;;;;;;;;;;;13.70;42.50;;;;;;5055396;28;42900;-82
2023/12/07 08:26:38;;;;;;;;;;;13.80;42.70;;;;;;5034624;28;44280;-84
2023/12/07 08:29:04;;;;;;;;;;;13.80;42.80;;;;;;5045417;28;43033;-83
2023/12/07 08:31:29;;;;;;;;;;;13.80;43.30;;;;;;5043055;28;42939;-83
2023/12/07 08:33:55;;;;;;;;;;;13.90;43.00;;;;;;5055441;28;43160;-83
2023/12/07 08:36:20;;;;;;;;;;;13.80;43.70;;;;;;5053123;28;43482;-82
2023/12/07 08:38:46;;;;;;;;;;;13.80;44.00;;;;;;5044063;28;42928;-83
2023/12/07 08:41:11;;;;;;;;;;;13.70;43.40;;;;;;5044116;28;43517;-84
2023/12/07 08:43:37;;;;;;;;;;;13.90;43.80;;;;;;5041887;28;43083;-89
2023/12/07 08:46:03;;;;;;;;;;;13.90;44.10;;;;;;5051532;28;43039;-82
2023/12/07 08:48:29;;;;;;;;;;;14.10;44.30;;;;;;5055377;28;42982;-80
2023/12/07 08:50:54;;;;;;;;;;;13.80;45.00;;;;;;5054307;28;42979;-83
2023/12/07 08:53:20;;;;;;;;;;;13.90;44.30;;;;;;5054643;28;43022;-83
2023/12/07 08:55:45;;;;;;;;;;;13.90;44.90;;;;;;5036638;28;44455;-83
2023/12/07 08:58:11;;;;;;;;;;;13.80;44.50;;;;;;5045245;28;42817;-81
2023/12/07 09:00:37;;;;;;;;;;;14.20;45.40;;;;;;5044395;28;43656;-82
2023/12/07 09:03:02;;;;;;;;;;;14.00;45.00;;;;;;5053212;28;42966;-82
2023/12/07 09:05:28;;;;;;;;;;;14.00;44.90;;;;;;5052951;28;43058;-82
2023/12/07 09:07:53;;;;;;;;;;;14.10;45.00;;;;;;5054897;28;43007;-82
2023/12/07 09:10:19;;;;;;;;;;;14.00;45.60;;;;;;5044467;28;44291;-84
2023/12/07 09:12:45;;;;;;;;;;;14.00;45.50;;;;;;5054990;28;42983;-83
2023/12/07 09:15:11;;;;;;;;;;;13.90;45.60;;;;;;5035759;28;44192;-83
2023/12/07 09:17:37;;;;;;;;;;;14.00;45.60;;;;;;5052821;28;42930;-83
2023/12/07 09:20:12;;;;;;;;;;;14.00;45.90;;;;;;5047956;28;43127;-83
2023/12/07 09:22:38;;;;;;;;;;;14.00;45.70;;;;;;5044234;28;42940;-85
2023/12/07 09:25:04;;;;;;;;;;;14.00;45.70;;;;;;5045952;28;42877;-82
2023/12/07 09:27:31;;;;;;;;;;;14.10;45.80;;;;;;5049207;28;44143;-82
2023/12/07 09:29:57;;;;;;;;;;;13.90;46.20;;;;;;5054178;28;43488;-83
2023/12/07 09:32:22;;;;;;;;;;;13.90;46.50;;;;;;5056040;28;42848;-82
2023/12/07 09:34:51;;;;;;;;;;;13.90;45.70;;;;;;5053214;28;43466;-82
2023/12/07 09:37:16;;;;;;;;;;;14.00;46.30;;;;;;5053414;28;42770;-84
2023/12/07 09:39:42;;;;;;;;;;;14.00;46.40;;;;;;5055135;28;43485;-82
2023/12/07 09:42:07;;;;;;;;;;;13.90;45.80;;;;;;5050223;28;43283;-83
2023/12/07 09:44:33;;;;;;;;;;;13.80;45.80;;;;;;5055449;28;43371;-82
2023/12/07 09:46:59;;;;;;;;;;;14.00;46.70;;;;;;5067531;28;42697;-85
2023/12/07 09:49:25;;;;;;;;;;;14.00;46.50;;;;;;5042072;28;43651;-85
2023/12/07 09:51:51;;;;;;;;;;;14.00;46.60;;;;;;5049341;28;42998;-82
2023/12/07 09:54:17;;;;;;;;;;;13.90;46.10;;;;;;5056758;28;44765;-86
2023/12/07 09:56:43;;;;;;;;;;;13.90;46.80;;;;;;5058645;28;43063;-83
2023/12/07 09:59:09;;;;;;;;;;;14.10;46.50;;;;;;5053936;28;43101;-83
2023/12/07 10:01:38;;;;;;;;;;;14.00;46.90;;;;;;5058246;28;42926;-84
2023/12/07 10:04:20;;;;;;;;;;;13.90;46.20;;;;;;5057886;28;42914;-82
2023/12/07 10:06:47;;;;;;;;;;;14.00;45.90;;;;;;5056368;28;42964;-84
2023/12/07 10:09:13;;;;;;;;;;;14.00;45.70;;;;;;5058385;28;43297;-82
2023/12/07 10:11:39;;;;;;;;;;;14.00;45.40;;;;;;5052302;28;43039;-87
2023/12/07 10:14:07;;;;;;;;;;;13.90;46.00;;;;;;5047842;28;43545;-80
2023/12/07 10:16:35;;;;;;;;;;;13.90;45.80;;;;;;5047675;28;43036;-80
2023/12/07 10:19:13;;;;;;;;;;;14.00;45.60;;;;;;5046209;28;43626;-81
2023/12/07 10:21:39;;;;;;;;;;;14.10;45.50;;;;;;5046037;28;43125;-82
2023/12/07 10:24:08;;;;;;;;;;;14.40;46.20;;;;;;5047498;28;43169;-93
2023/12/07 10:26:39;;;;;;;;;;;14.30;46.50;;;;;;5056892;28;43266;-92
2023/12/07 10:29:05;;;;;;;;;;;14.30;46.70;;;;;;5056323;28;44090;-92
2023/12/07 10:31:36;;;;;;;;;;;14.70;47.20;;;;;;5048547;28;42880;-91
2023/12/07 10:34:02;;;;;;;;;;;14.60;47.30;;;;;;5047034;28;42829;-87
2023/12/07 10:36:28;;;;;;;;;;;14.70;47.40;;;;;;5045896;28;43070;-91
2023/12/07 10:38:59;;;;;;;;;;;14.70;47.50;;;;;;5043904;28;42984;-88
2023/12/07 10:41:34;;;;;;;;;;;14.80;47.50;;;;;;5038698;28;43317;-89
2023/12/07 10:44:00;;;;;;;;;;;14.90;47.40;;;;;;5054720;28;42979;-88
2023/12/07 10:46:26;;;;;;;;;;;14.70;47.40;;;;;;5055924;28;42956;-86
2023/12/07 10:49:05;;;;;;;;;;;14.80;47.30;;;;;;5056622;28;43554;-87
2023/12/07 10:51:37;;;;;;;;;;;14.80;47.20;;;;;;5060967;22;43078;-89
2023/12/07 10:54:15;;;;;;;;;;;14.70;47.30;;;;;;5051785;28;43007;-90
2023/12/07 10:56:41;;;;;;;;;;;;;;;;;;5054935;28;42915;-85
2023/12/07 10:59:10;;;;;;;;;;;15.10;47.30;;;;;;5036439;28;44586;-86
2023/12/07 11:02:07;;;;;;;;;;;;;;;;;;;;;
2023/12/07 11:04:22;;;;;;;;;;;14.90;47.20;;;;;;5048027;28;43521;-88
2023/12/07 11:07:09;;;;;;;;;;;14.90;47.10;;;;;;5033822;28;43778;-90
2023/12/07 11:09:38;;;;;;;;;;;15.10;47.30;;;;;;5046892;28;42928;-88
2023/12/07 11:12:10;;;;;;;;;;;15.00;47.30;;;;;;5047545;28;42868;-84
2023/12/07 11:14:37;;;;;;;;;;;15.10;47.20;;;;;;5046989;28;43066;-83
2023/12/07 11:17:03;;;;;;;;;;;15.10;47.30;;;;;;5046048;28;42946;-85
2023/12/07 11:19:29;;;;;;;;;;;15.20;47.70;;;;;;5053200;28;43568;-83
2023/12/07 11:21:55;;;;;;;;;;;15.00;47.60;;;;;;5051428;28;42983;-83
2023/12/07 11:24:22;;;;;;;;;;;15.10;47.80;;;;;;5045941;28;43484;-83
2023/12/07 11:26:48;;;;;;;;;;;15.10;48.20;;;;;;5045822;28;43008;-83
2023/12/07 11:29:13;;;;;;;;;;;15.00;47.80;;;;;;5045331;28;42830;-82
2023/12/07 11:31:39;;;;;;;;;;;15.10;47.80;;;;;;5045431;28;43142;-83
2023/12/07 11:34:13;;;;;;;;;;;15.10;47.80;;;;;;5045715;28;42995;-83
2023/12/07 11:36:39;;;;;;;;;;;15.10;47.80;;;;;;5045611;28;42919;-82
2023/12/07 11:39:08;;;;;;;;;;;15.10;47.90;;;;;;5043685;28;43733;-82
2023/12/07 11:41:45;;;;;;;;;;;15.10;47.70;;;;;;5031279;28;43005;-87
2023/12/07 11:44:16;;;;;;;;;;;15.10;46.00;;;;;;5056044;28;43584;-87
2023/12/07 11:46:41;;;;;;;;;;;15.20;45.40;;;;;;5029525;28;42944;-86
2023/12/07 11:49:10;;;;;;;;;;;15.20;45.40;;;;;;5055077;28;42881;-85
2023/12/07 11:51:36;;;;;;;;;;;15.00;44.80;;;;;;5054314;28;42942;-87
2023/12/07 11:54:01;;;;;;;;;;;15.10;44.40;;;;;;5045282;28;43044;-85
2023/12/07 11:56:27;;;;;;;;;;;15.10;44.40;;;;;;5057507;28;42940;-87
2023/12/07 11:58:52;;;;;;;;;;;14.90;44.40;;;;;;5033000;28;44563;-82
2023/12/07 12:01:18;;;;;;;;;;;14.80;44.70;;;;;;5046265;28;43540;-84
2023/12/07 12:03:43;;;;;;;;;;;15.10;45.90;;;;;;5058907;28;42926;-83
2023/12/07 12:06:11;;;;;;;;;;;15.00;46.00;;;;;;5027054;28;43344;-83
2023/12/07 12:08:37;;;;;;;;;;;15.10;46.20;;;;;;5045825;28;42916;-84
2023/12/07 12:11:04;;;;;;;;;;;15.20;46.20;;;;;;5045993;28;43019;-85
2023/12/07 12:16:45;;;;;;;;;;;15.40;46.30;;;;;;5058231;28;42991;-88
2023/12/07 12:19:10;;;;;;;;;;;15.30;46.50;;;;;;5063549;28;42833;-86
2023/12/07 12:27:49;;;;;;;;;;;15.30;46.60;;;;;;5061541;28;43105;-88
2023/12/07 12:30:15;;;;;;;;;;;15.40;46.70;;;;;;5065466;28;43529;-80
2023/12/07 12:32:46;;;;;;;;;;;15.30;46.80;;;;;;5065792;28;42999;-80
2023/12/07 12:35:15;;;;;;;;;;;15.20;46.70;;;;;;5065682;28;43690;-80
2023/12/07 12:37:43;;;;;;;;;;;15.30;46.50;;;;;;5065113;28;59706;-80
2023/12/07 12:40:09;;;;;;;;;;;15.30;47.40;;;;;;5065512;28;43333;-80
2023/12/07 12:42:37;;;;;;;;;;;15.40;47.00;;;;;;5065676;28;42950;-80
2023/12/07 12:45:03;;;;;;;;;;;15.60;47.10;;;;;;5065275;28;43506;-80
2023/12/07 12:47:29;;;;;;;;;;;15.40;47.00;;;;;;5065113;28;42951;-80
2023/12/07 12:49:54;;;;;;;;;;;15.40;47.00;;;;;;5065031;28;42864;-80
2023/12/07 12:52:20;;;;;;;;;;;15.50;47.10;;;;;;5064813;28;42955;-80
2023/12/07 12:54:46;;;;;;;;;;;15.40;47.70;;;;;;5065756;28;42892;-80
2023/12/07 12:57:13;;;;;;;;;;;15.30;47.50;;;;;;5065574;28;42890;-80
2023/12/07 12:59:39;;;;;;;;;;;15.40;47.10;;;;;;5065389;28;43106;-80
2023/12/07 13:02:05;;;;;;;;;;;15.40;47.60;;;;;;5065079;28;42995;-81
2023/12/07 13:04:30;;;;;;;;;;;15.40;47.60;;;;;;5065754;28;43612;-81
2023/12/07 13:06:56;;;;;;;;;;;15.40;48.20;;;;;;5065778;28;42993;-81
2023/12/07 13:09:22;;;;;;;;;;;15.50;47.70;;;;;;5065560;28;43430;-81
2023/12/07 13:11:48;;;;;;;;;;;15.40;47.60;;;;;;5065922;28;42986;-80
2023/12/07 13:14:14;;;;;;;;;;;15.50;47.60;;;;;;5065431;28;43442;-81
2023/12/07 13:16:40;;;;;;;;;;;15.40;47.80;;;;;;5065317;28;42896;-81
2023/12/07 13:19:06;;;;;;;;;;;15.40;47.20;;;;;;5065548;28;43744;-80
2023/12/07 13:21:32;;;;;;;;;;;15.60;47.30;;;;;;5067580;28;42987;-81
2023/12/07 13:23:58;;;;;;;;;;;15.60;47.30;;;;;;5068988;28;43712;-80
2023/12/07 13:26:24;;;;;;;;;;;15.40;47.90;;;;;;5050694;28;42987;-81
2023/12/07 13:28:49;;;;;;;;;;;15.50;47.20;;;;;;5068785;28;43407;-81
2023/12/07 13:31:15;;;;;;;;;;;15.40;47.90;;;;;;5050638;28;42834;-81
2023/12/07 13:33:41;;;;;;;;;;;15.50;47.80;;;;;;5068281;28;42949;-81
2023/12/07 13:36:07;;;;;;;;;;;15.40;47.30;;;;;;5068919;28;42892;-81
2023/12/07 13:38:34;;;;;;;;;;;15.50;47.70;;;;;;5068583;28;43598;-81
2023/12/07 13:40:59;;;;;;;;;;;15.40;47.20;;;;;;5067877;28;42920;-79
2023/12/07 13:43:25;;;;;;;;;;;15.50;47.30;;;;;;5049733;28;44367;-80
2023/12/07 13:45:51;;;;;;;;;;;15.40;47.80;;;;;;5068844;28;42860;-81
2023/12/07 13:48:17;;;;;;;;;;;15.40;47.80;;;;;;5067731;28;42949;-80
2023/12/07 13:50:42;;;;;;;;;;;15.60;47.30;;;;;;5050374;28;42973;-80
2023/12/07 13:53:10;;;;;;;;;;;15.50;48.00;;;;;;5068564;28;43417;-81
2023/12/07 13:55:37;;;;;;;;;;;15.60;47.90;;;;;;5068371;28;42979;-80
2023/12/07 13:58:02;;;;;;;;;;;15.40;47.40;;;;;;5068440;28;43407;-81
2023/12/07 14:00:28;;;;;;;;;;;15.50;47.30;;;;;;5068705;28;42999;-80
2023/12/07 14:02:54;;;;;;;;;;;15.60;47.40;;;;;;5067836;28;43473;-80
2023/12/07 14:05:19;;;;;;;;;;;15.50;47.90;;;;;;5068521;28;42957;-81
2023/12/07 14:07:45;;;;;;;;;;;15.60;47.90;;;;;;5067872;28;44376;-80
2023/12/07 14:10:11;;;;;;;;;;;15.50;47.80;;;;;;5067920;28;42919;-81
2023/12/07 14:12:37;;;;;;;;;;;15.60;47.30;;;;;;5066878;28;44531;-81
2023/12/07 14:15:03;;;;;;;;;;;15.50;47.80;;;;;;5068111;28;42973;-80
2023/12/07 14:17:37;;;;;;;;;;;15.60;47.80;;;;;;5068011;28;42912;-81
2023/12/07 14:20:03;;;;;;;;;;;15.50;48.00;;;;;;5075350;28;42916;-81
2023/12/07 14:22:29;;;;;;;;;;;15.60;47.40;;;;;;5068029;28;43495;-81
2023/12/07 14:24:54;;;;;;;;;;;15.50;47.40;;;;;;5068572;28;42974;-81
2023/12/07 14:27:21;;;;;;;;;;;15.60;47.50;;;;;;5068000;28;42870;-81
2023/12/07 14:29:46;;;;;;;;;;;15.50;47.40;;;;;;5067917;28;42825;-81
2023/12/07 14:32:12;;;;;;;;;;;15.60;47.50;;;;;;5067117;28;42993;-81
2023/12/07 14:34:37;;;;;;;;;;;15.50;48.60;;;;;;5066547;28;42916;-81
2023/12/07 14:37:05;;;;;;;;;;;15.60;47.50;;;;;;5067069;28;42883;-81
2023/12/07 14:39:31;;;;;;;;;;;15.50;47.90;;;;;;5067111;28;42899;-81
2023/12/07 14:41:56;;;;;;;;;;;15.60;48.00;;;;;;5067219;28;42947;-81
2023/12/07 14:44:22;;;;;;;;;;;15.60;48.10;;;;;;5067615;28;43090;-81
2023/12/07 14:46:48;;;;;;;;;;;15.60;48.10;;;;;;5048473;28;43050;-81
2023/12/07 14:49:14;;;;;;;;;;;15.60;48.00;;;;;;5067755;28;42990;-81
2023/12/07 14:51:40;;;;;;;;;;;15.50;48.00;;;;;;5067066;28;43455;-81
2023/12/07 14:54:07;;;;;;;;;;;15.50;48.00;;;;;;5066714;28;42932;-81
2023/12/07 14:56:35;;;;;;;;;;;15.60;48.10;;;;;;5047091;28;45098;-81
2023/12/07 14:59:01;;;;;;;;;;;15.60;47.60;;;;;;5067141;28;42934;-81